sensor_id;sensor_type;location;lat;lon;timestamp;P1;durP1;ratioP1;P2;durP2;ratioP2
80677;SDS011;70042;52.494;5.502;2024-02-14T00:00:02;0.75;;;0.50;;
80677;SDS011;70042;52.494;5.502;2024-02-14T00:02:28;0.98;;;0.40;;
80677;SDS011;70042;52.494;5.502;2024-02-14T00:04:53;1.80;;;0.40;;
80677;SDS011;70042;52.494;5.502;2024-02-14T00:07:19;1.63;;;0.70;;
80677;SDS011;70042;52.494;5.502;2024-02-14T00:09:45;0.90;;;0.60;;
80677;SDS011;70042;52.494;5.502;2024-02-14T00:12:11;1.30;;;0.40;;
80677;SDS011;70042;52.494;5.502;2024-02-14T00:14:37;1.10;;;0.57;;
80677;SDS011;70042;52.494;5.502;2024-02-14T00:17:03;1.52;;;0.43;;
80677;SDS011;70042;52.494;5.502;2024-02-14T00:19:30;1.10;;;0.50;;
80677;SDS011;70042;52.494;5.502;2024-02-14T00:21:55;1.48;;;0.52;;
80677;SDS011;70042;52.494;5.502;2024-02-14T00:24:21;1.33;;;0.63;;
80677;SDS011;70042;52.494;5.502;2024-02-14T00:29:14;0.73;;;0.40;;
80677;SDS011;70042;52.494;5.502;2024-02-14T00:31:39;1.80;;;0.50;;
80677;SDS011;70042;52.494;5.502;2024-02-14T00:34:04;0.90;;;0.40;;
80677;SDS011;70042;52.494;5.502;2024-02-14T00:36:30;0.75;;;0.60;;
80677;SDS011;70042;52.494;5.502;2024-02-14T00:38:55;0.80;;;0.40;;
80677;SDS011;70042;52.494;5.502;2024-02-14T00:41:21;0.93;;;0.50;;
80677;SDS011;70042;52.494;5.502;2024-02-14T00:43:46;0.90;;;0.55;;
80677;SDS011;70042;52.494;5.502;2024-02-14T00:46:15;0.95;;;0.60;;
80677;SDS011;70042;52.494;5.502;2024-02-14T00:48:43;0.93;;;0.57;;
80677;SDS011;70042;52.494;5.502;2024-02-14T00:51:09;1.48;;;0.68;;
80677;SDS011;70042;52.494;5.502;2024-02-14T00:53:35;0.93;;;0.60;;
80677;SDS011;70042;52.494;5.502;2024-02-14T00:56:00;0.55;;;0.40;;
80677;SDS011;70042;52.494;5.502;2024-02-14T00:58:26;0.95;;;0.43;;
80677;SDS011;70042;52.494;5.502;2024-02-14T01:00:51;0.88;;;0.43;;
80677;SDS011;70042;52.494;5.502;2024-02-14T01:03:17;1.30;;;0.47;;
80677;SDS011;70042;52.494;5.502;2024-02-14T01:05:42;0.52;;;0.40;;
80677;SDS011;70042;52.494;5.502;2024-02-14T01:08:08;1.20;;;0.50;;
80677;SDS011;70042;52.494;5.502;2024-02-14T01:10:33;0.28;;;0.25;;
80677;SDS011;70042;52.494;5.502;2024-02-14T01:12:59;1.30;;;0.45;;
80677;SDS011;70042;52.494;5.502;2024-02-14T01:15:24;0.77;;;0.45;;
80677;SDS011;70042;52.494;5.502;2024-02-14T01:17:49;1.15;;;0.50;;
80677;SDS011;70042;52.494;5.502;2024-02-14T01:20:15;0.80;;;0.50;;
80677;SDS011;70042;52.494;5.502;2024-02-14T01:22:40;0.77;;;0.43;;
80677;SDS011;70042;52.494;5.502;2024-02-14T01:25:06;0.60;;;0.30;;
80677;SDS011;70042;52.494;5.502;2024-02-14T01:27:32;0.57;;;0.40;;
80677;SDS011;70042;52.494;5.502;2024-02-14T01:29:57;0.93;;;0.50;;
80677;SDS011;70042;52.494;5.502;2024-02-14T01:32:23;1.05;;;0.50;;
80677;SDS011;70042;52.494;5.502;2024-02-14T01:34:48;1.13;;;0.50;;
80677;SDS011;70042;52.494;5.502;2024-02-14T01:37:14;0.93;;;0.35;;
80677;SDS011;70042;52.494;5.502;2024-02-14T01:39:39;1.48;;;0.45;;
80677;SDS011;70042;52.494;5.502;2024-02-14T01:42:05;1.33;;;0.50;;
80677;SDS011;70042;52.494;5.502;2024-02-14T01:44:32;1.33;;;0.60;;
80677;SDS011;70042;52.494;5.502;2024-02-14T01:46:59;0.77;;;0.50;;
80677;SDS011;70042;52.494;5.502;2024-02-14T01:51:53;0.75;;;0.47;;
80677;SDS011;70042;52.494;5.502;2024-02-14T01:54:24;1.20;;;0.60;;
80677;SDS011;70042;52.494;5.502;2024-02-14T01:56:50;0.85;;;0.38;;
80677;SDS011;70042;52.494;5.502;2024-02-14T01:59:17;0.70;;;0.40;;
80677;SDS011;70042;52.494;5.502;2024-02-14T02:01:43;1.23;;;0.40;;
80677;SDS011;70042;52.494;5.502;2024-02-14T02:04:09;1.55;;;0.40;;
80677;SDS011;70042;52.494;5.502;2024-02-14T02:06:34;0.90;;;0.50;;
80677;SDS011;70042;52.494;5.502;2024-02-14T02:09:00;1.08;;;0.52;;
80677;SDS011;70042;52.494;5.502;2024-02-14T02:11:26;1.67;;;0.47;;
80677;SDS011;70042;52.494;5.502;2024-02-14T02:13:51;0.50;;;0.40;;
80677;SDS011;70042;52.494;5.502;2024-02-14T02:16:17;0.80;;;0.50;;
80677;SDS011;70042;52.494;5.502;2024-02-14T02:18:44;1.25;;;0.73;;
80677;SDS011;70042;52.494;5.502;2024-02-14T02:21:10;0.75;;;0.40;;
80677;SDS011;70042;52.494;5.502;2024-02-14T02:23:38;0.75;;;0.40;;
80677;SDS011;70042;52.494;5.502;2024-02-14T02:26:05;1.08;;;0.50;;
80677;SDS011;70042;52.494;5.502;2024-02-14T02:28:31;0.70;;;0.47;;
80677;SDS011;70042;52.494;5.502;2024-02-14T02:30:56;0.90;;;0.55;;
80677;SDS011;70042;52.494;5.502;2024-02-14T02:33:22;0.50;;;0.30;;
80677;SDS011;70042;52.494;5.502;2024-02-14T02:35:48;0.90;;;0.60;;
80677;SDS011;70042;52.494;5.502;2024-02-14T02:38:15;0.98;;;0.50;;
80677;SDS011;70042;52.494;5.502;2024-02-14T02:40:44;0.70;;;0.52;;
80677;SDS011;70042;52.494;5.502;2024-02-14T02:43:10;0.50;;;0.40;;
80677;SDS011;70042;52.494;5.502;2024-02-14T02:45:36;0.50;;;0.40;;
80677;SDS011;70042;52.494;5.502;2024-02-14T02:48:01;0.50;;;0.38;;
80677;SDS011;70042;52.494;5.502;2024-02-14T02:50:27;0.73;;;0.50;;
80677;SDS011;70042;52.494;5.502;2024-02-14T02:52:53;0.65;;;0.40;;
80677;SDS011;70042;52.494;5.502;2024-02-14T02:55:19;0.43;;;0.32;;
80677;SDS011;70042;52.494;5.502;2024-02-14T02:57:45;1.00;;;0.40;;
80677;SDS011;70042;52.494;5.502;2024-02-14T03:00:11;1.42;;;0.60;;
80677;SDS011;70042;52.494;5.502;2024-02-14T03:02:38;0.60;;;0.40;;
80677;SDS011;70042;52.494;5.502;2024-02-14T03:05:07;1.33;;;0.50;;
80677;SDS011;70042;52.494;5.502;2024-02-14T03:07:35;0.85;;;0.50;;
80677;SDS011;70042;52.494;5.502;2024-02-14T03:10:04;0.52;;;0.50;;
80677;SDS011;70042;52.494;5.502;2024-02-14T03:12:30;0.90;;;0.60;;
80677;SDS011;70042;52.494;5.502;2024-02-14T03:14:57;1.00;;;0.85;;
80677;SDS011;70042;52.494;5.502;2024-02-14T03:17:23;1.00;;;0.40;;
80677;SDS011;70042;52.494;5.502;2024-02-14T03:19:49;1.08;;;0.70;;
80677;SDS011;70042;52.494;5.502;2024-02-14T03:22:16;0.60;;;0.40;;
80677;SDS011;70042;52.494;5.502;2024-02-14T03:24:43;0.70;;;0.50;;
80677;SDS011;70042;52.494;5.502;2024-02-14T03:27:11;0.60;;;0.40;;
80677;SDS011;70042;52.494;5.502;2024-02-14T03:29:37;1.05;;;0.70;;
80677;SDS011;70042;52.494;5.502;2024-02-14T03:32:04;0.50;;;0.40;;
80677;SDS011;70042;52.494;5.502;2024-02-14T03:34:33;1.08;;;0.50;;
80677;SDS011;70042;52.494;5.502;2024-02-14T03:37:00;0.95;;;0.50;;
80677;SDS011;70042;52.494;5.502;2024-02-14T03:39:27;0.43;;;0.30;;
80677;SDS011;70042;52.494;5.502;2024-02-14T03:41:55;0.98;;;0.60;;
80677;SDS011;70042;52.494;5.502;2024-02-14T03:44:22;0.77;;;0.43;;
80677;SDS011;70042;52.494;5.502;2024-02-14T03:46:48;0.70;;;0.55;;
80677;SDS011;70042;52.494;5.502;2024-02-14T03:49:14;0.65;;;0.40;;
80677;SDS011;70042;52.494;5.502;2024-02-14T03:51:39;0.63;;;0.40;;
80677;SDS011;70042;52.494;5.502;2024-02-14T03:54:05;0.68;;;0.40;;
80677;SDS011;70042;52.494;5.502;2024-02-14T03:56:31;0.43;;;0.30;;
80677;SDS011;70042;52.494;5.502;2024-02-14T03:58:58;0.38;;;0.30;;
80677;SDS011;70042;52.494;5.502;2024-02-14T04:01:24;0.50;;;0.30;;
80677;SDS011;70042;52.494;5.502;2024-02-14T04:03:49;0.75;;;0.50;;
80677;SDS011;70042;52.494;5.502;2024-02-14T04:06:15;1.13;;;0.50;;
80677;SDS011;70042;52.494;5.502;2024-02-14T04:08:40;0.75;;;0.40;;
80677;SDS011;70042;52.494;5.502;2024-02-14T04:11:06;0.40;;;0.35;;
80677;SDS011;70042;52.494;5.502;2024-02-14T04:13:31;1.10;;;0.50;;
80677;SDS011;70042;52.494;5.502;2024-02-14T04:15:56;0.90;;;0.52;;
80677;SDS011;70042;52.494;5.502;2024-02-14T04:18:22;0.70;;;0.40;;
80677;SDS011;70042;52.494;5.502;2024-02-14T04:20:47;0.60;;;0.40;;
80677;SDS011;70042;52.494;5.502;2024-02-14T04:23:13;0.63;;;0.47;;
80677;SDS011;70042;52.494;5.502;2024-02-14T04:25:39;0.80;;;0.50;;
80677;SDS011;70042;52.494;5.502;2024-02-14T04:28:07;0.65;;;0.40;;
80677;SDS011;70042;52.494;5.502;2024-02-14T04:30:33;0.75;;;0.40;;
80677;SDS011;70042;52.494;5.502;2024-02-14T04:32:58;1.27;;;0.60;;
80677;SDS011;70042;52.494;5.502;2024-02-14T04:35:24;0.68;;;0.50;;
80677;SDS011;70042;52.494;5.502;2024-02-14T04:37:49;0.77;;;0.60;;
80677;SDS011;70042;52.494;5.502;2024-02-14T04:40:16;0.98;;;0.60;;
80677;SDS011;70042;52.494;5.502;2024-02-14T04:42:41;1.17;;;0.47;;
80677;SDS011;70042;52.494;5.502;2024-02-14T04:45:07;0.47;;;0.40;;
80677;SDS011;70042;52.494;5.502;2024-02-14T04:47:33;1.02;;;0.45;;
80677;SDS011;70042;52.494;5.502;2024-02-14T04:49:59;1.00;;;0.60;;
80677;SDS011;70042;52.494;5.502;2024-02-14T04:52:25;0.47;;;0.40;;
80677;SDS011;70042;52.494;5.502;2024-02-14T04:54:52;0.50;;;0.45;;
80677;SDS011;70042;52.494;5.502;2024-02-14T04:57:17;1.10;;;0.50;;
80677;SDS011;70042;52.494;5.502;2024-02-14T04:59:45;1.38;;;0.63;;
80677;SDS011;70042;52.494;5.502;2024-02-14T05:02:10;1.05;;;0.65;;
80677;SDS011;70042;52.494;5.502;2024-02-14T05:04:36;0.50;;;0.50;;
80677;SDS011;70042;52.494;5.502;2024-02-14T05:07:03;0.70;;;0.60;;
80677;SDS011;70042;52.494;5.502;2024-02-14T05:11:54;0.77;;;0.57;;
80677;SDS011;70042;52.494;5.502;2024-02-14T05:14:20;0.68;;;0.50;;
80677;SDS011;70042;52.494;5.502;2024-02-14T05:16:45;0.90;;;0.50;;
80677;SDS011;70042;52.494;5.502;2024-02-14T05:19:11;0.98;;;0.55;;
80677;SDS011;70042;52.494;5.502;2024-02-14T05:21:36;1.33;;;0.60;;
80677;SDS011;70042;52.494;5.502;2024-02-14T05:24:03;0.60;;;0.40;;
80677;SDS011;70042;52.494;5.502;2024-02-14T05:26:29;1.05;;;0.40;;
80677;SDS011;70042;52.494;5.502;2024-02-14T05:28:54;0.90;;;0.60;;
80677;SDS011;70042;52.494;5.502;2024-02-14T05:31:20;1.45;;;0.60;;
80677;SDS011;70042;52.494;5.502;2024-02-14T05:33:45;1.50;;;0.60;;
80677;SDS011;70042;52.494;5.502;2024-02-14T05:36:11;0.75;;;0.65;;
80677;SDS011;70042;52.494;5.502;2024-02-14T05:38:36;0.90;;;0.60;;
80677;SDS011;70042;52.494;5.502;2024-02-14T05:41:02;0.85;;;0.52;;
80677;SDS011;70042;52.494;5.502;2024-02-14T05:43:27;1.90;;;0.70;;
80677;SDS011;70042;52.494;5.502;2024-02-14T05:45:53;0.70;;;0.50;;
80677;SDS011;70042;52.494;5.502;2024-02-14T05:48:19;1.30;;;0.50;;
80677;SDS011;70042;52.494;5.502;2024-02-14T05:50:45;2.65;;;0.80;;
80677;SDS011;70042;52.494;5.502;2024-02-14T05:53:10;0.63;;;0.52;;
80677;SDS011;70042;52.494;5.502;2024-02-14T05:55:37;1.58;;;0.85;;
80677;SDS011;70042;52.494;5.502;2024-02-14T05:58:03;0.90;;;0.50;;
80677;SDS011;70042;52.494;5.502;2024-02-14T06:00:28;0.80;;;0.57;;
80677;SDS011;70042;52.494;5.502;2024-02-14T06:02:54;0.57;;;0.50;;
80677;SDS011;70042;52.494;5.502;2024-02-14T06:05:20;2.22;;;0.60;;
80677;SDS011;70042;52.494;5.502;2024-02-14T06:07:45;1.45;;;0.60;;
80677;SDS011;70042;52.494;5.502;2024-02-14T06:10:12;1.48;;;0.45;;
80677;SDS011;70042;52.494;5.502;2024-02-14T06:12:37;1.33;;;0.43;;
80677;SDS011;70042;52.494;5.502;2024-02-14T06:15:05;0.80;;;0.60;;
80677;SDS011;70042;52.494;5.502;2024-02-14T06:17:32;1.73;;;0.60;;
80677;SDS011;70042;52.494;5.502;2024-02-14T06:19:57;2.28;;;0.73;;
80677;SDS011;70042;52.494;5.502;2024-02-14T06:22:23;1.55;;;0.60;;
80677;SDS011;70042;52.494;5.502;2024-02-14T06:24:49;0.93;;;0.60;;
80677;SDS011;70042;52.494;5.502;2024-02-14T06:27:15;1.08;;;0.50;;
80677;SDS011;70042;52.494;5.502;2024-02-14T06:29:44;1.35;;;0.52;;
80677;SDS011;70042;52.494;5.502;2024-02-14T06:32:11;1.42;;;0.50;;
80677;SDS011;70042;52.494;5.502;2024-02-14T06:34:38;1.85;;;0.77;;
80677;SDS011;70042;52.494;5.502;2024-02-14T06:37:03;1.55;;;0.60;;
80677;SDS011;70042;52.494;5.502;2024-02-14T06:39:29;2.20;;;0.50;;
80677;SDS011;70042;52.494;5.502;2024-02-14T06:44:20;1.05;;;0.60;;
80677;SDS011;70042;52.494;5.502;2024-02-14T06:46:46;0.80;;;0.40;;
80677;SDS011;70042;52.494;5.502;2024-02-14T06:49:11;0.95;;;0.52;;
80677;SDS011;70042;52.494;5.502;2024-02-14T06:51:37;1.73;;;0.80;;
80677;SDS011;70042;52.494;5.502;2024-02-14T06:54:02;0.80;;;0.50;;
80677;SDS011;70042;52.494;5.502;2024-02-14T06:56:29;1.77;;;0.80;;
80677;SDS011;70042;52.494;5.502;2024-02-14T06:58:56;1.17;;;0.80;;
80677;SDS011;70042;52.494;5.502;2024-02-14T07:01:28;1.00;;;0.70;;
80677;SDS011;70042;52.494;5.502;2024-02-14T07:03:54;1.45;;;0.55;;
80677;SDS011;70042;52.494;5.502;2024-02-14T07:06:19;2.10;;;0.80;;
80677;SDS011;70042;52.494;5.502;2024-02-14T07:08:45;1.00;;;0.60;;
80677;SDS011;70042;52.494;5.502;2024-02-14T07:11:12;2.15;;;0.80;;
80677;SDS011;70042;52.494;5.502;2024-02-14T07:13:38;1.23;;;0.65;;
80677;SDS011;70042;52.494;5.502;2024-02-14T07:16:03;1.75;;;0.88;;
80677;SDS011;70042;52.494;5.502;2024-02-14T07:18:29;2.47;;;0.90;;
80677;SDS011;70042;52.494;5.502;2024-02-14T07:20:54;2.45;;;0.95;;
80677;SDS011;70042;52.494;5.502;2024-02-14T07:23:20;1.92;;;0.70;;
80677;SDS011;70042;52.494;5.502;2024-02-14T07:25:45;2.10;;;0.70;;
80677;SDS011;70042;52.494;5.502;2024-02-14T07:28:11;1.13;;;0.57;;
80677;SDS011;70042;52.494;5.502;2024-02-14T07:30:36;1.70;;;0.70;;
80677;SDS011;70042;52.494;5.502;2024-02-14T07:33:02;1.27;;;0.65;;
80677;SDS011;70042;52.494;5.502;2024-02-14T07:35:27;1.05;;;0.52;;
80677;SDS011;70042;52.494;5.502;2024-02-14T07:40:19;1.60;;;0.70;;
80677;SDS011;70042;52.494;5.502;2024-02-14T07:42:44;2.95;;;1.00;;
80677;SDS011;70042;52.494;5.502;2024-02-14T07:45:09;2.35;;;1.10;;
80677;SDS011;70042;52.494;5.502;2024-02-14T07:47:35;3.88;;;0.60;;
80677;SDS011;70042;52.494;5.502;2024-02-14T07:50:00;0.63;;;0.40;;
80677;SDS011;70042;52.494;5.502;2024-02-14T07:52:27;1.48;;;0.60;;
80677;SDS011;70042;52.494;5.502;2024-02-14T07:54:53;2.00;;;0.55;;
80677;SDS011;70042;52.494;5.502;2024-02-14T07:57:22;2.25;;;0.80;;
80677;SDS011;70042;52.494;5.502;2024-02-14T07:59:48;1.05;;;0.52;;
80677;SDS011;70042;52.494;5.502;2024-02-14T08:02:13;2.05;;;1.13;;
80677;SDS011;70042;52.494;5.502;2024-02-14T08:04:39;1.63;;;0.70;;
80677;SDS011;70042;52.494;5.502;2024-02-14T08:07:04;2.13;;;0.75;;
80677;SDS011;70042;52.494;5.502;2024-02-14T08:09:30;1.00;;;0.63;;
80677;SDS011;70042;52.494;5.502;2024-02-14T08:11:56;1.42;;;0.75;;
80677;SDS011;70042;52.494;5.502;2024-02-14T08:14:21;3.05;;;0.73;;
80677;SDS011;70042;52.494;5.502;2024-02-14T08:16:47;0.85;;;0.63;;
80677;SDS011;70042;52.494;5.502;2024-02-14T08:19:12;0.93;;;0.68;;
80677;SDS011;70042;52.494;5.502;2024-02-14T08:21:38;2.15;;;0.98;;
80677;SDS011;70042;52.494;5.502;2024-02-14T08:24:03;1.65;;;0.80;;
80677;SDS011;70042;52.494;5.502;2024-02-14T08:26:30;1.75;;;0.80;;
80677;SDS011;70042;52.494;5.502;2024-02-14T08:28:56;2.70;;;0.90;;
80677;SDS011;70042;52.494;5.502;2024-02-14T08:31:23;1.60;;;0.85;;
80677;SDS011;70042;52.494;5.502;2024-02-14T08:33:48;2.28;;;0.70;;
80677;SDS011;70042;52.494;5.502;2024-02-14T08:36:14;1.58;;;0.68;;
80677;SDS011;70042;52.494;5.502;2024-02-14T08:38:41;2.65;;;0.70;;
80677;SDS011;70042;52.494;5.502;2024-02-14T08:41:07;2.33;;;1.05;;
80677;SDS011;70042;52.494;5.502;2024-02-14T08:43:33;1.23;;;0.80;;
80677;SDS011;70042;52.494;5.502;2024-02-14T08:45:58;1.63;;;0.75;;
80677;SDS011;70042;52.494;5.502;2024-02-14T08:48:24;0.93;;;0.68;;
80677;SDS011;70042;52.494;5.502;2024-02-14T08:50:52;1.30;;;0.80;;
80677;SDS011;70042;52.494;5.502;2024-02-14T08:53:17;2.45;;;0.90;;
80677;SDS011;70042;52.494;5.502;2024-02-14T08:55:43;2.35;;;0.88;;
80677;SDS011;70042;52.494;5.502;2024-02-14T08:58:09;1.92;;;0.82;;
80677;SDS011;70042;52.494;5.502;2024-02-14T09:00:35;2.40;;;1.10;;
80677;SDS011;70042;52.494;5.502;2024-02-14T09:05:27;1.23;;;0.73;;
80677;SDS011;70042;52.494;5.502;2024-02-14T09:07:53;2.92;;;1.50;;
80677;SDS011;70042;52.494;5.502;2024-02-14T09:10:19;2.80;;;0.85;;
80677;SDS011;70042;52.494;5.502;2024-02-14T09:12:45;1.67;;;0.75;;
80677;SDS011;70042;52.494;5.502;2024-02-14T09:15:10;1.38;;;0.80;;
80677;SDS011;70042;52.494;5.502;2024-02-14T09:17:37;1.92;;;1.00;;
80677;SDS011;70042;52.494;5.502;2024-02-14T09:20:03;1.25;;;0.90;;
80677;SDS011;70042;52.494;5.502;2024-02-14T09:22:31;1.98;;;1.08;;
80677;SDS011;70042;52.494;5.502;2024-02-14T09:24:58;2.05;;;1.00;;
80677;SDS011;70042;52.494;5.502;2024-02-14T09:27:23;1.20;;;0.80;;
80677;SDS011;70042;52.494;5.502;2024-02-14T09:29:49;1.75;;;1.02;;
80677;SDS011;70042;52.494;5.502;2024-02-14T09:32:14;3.08;;;1.38;;
80677;SDS011;70042;52.494;5.502;2024-02-14T09:34:39;1.27;;;1.00;;
80677;SDS011;70042;52.494;5.502;2024-02-14T09:37:05;1.23;;;0.73;;
80677;SDS011;70042;52.494;5.502;2024-02-14T09:39:31;2.55;;;1.20;;
80677;SDS011;70042;52.494;5.502;2024-02-14T09:41:58;2.33;;;1.00;;
80677;SDS011;70042;52.494;5.502;2024-02-14T09:44:25;1.15;;;0.82;;
80677;SDS011;70042;52.494;5.502;2024-02-14T09:46:56;2.50;;;1.60;;
80677;SDS011;70042;52.494;5.502;2024-02-14T09:49:22;1.40;;;1.00;;
80677;SDS011;70042;52.494;5.502;2024-02-14T09:51:49;2.42;;;0.95;;
80677;SDS011;70042;52.494;5.502;2024-02-14T09:56:43;2.88;;;1.00;;
80677;SDS011;70042;52.494;5.502;2024-02-14T09:59:15;1.83;;;1.05;;
80677;SDS011;70042;52.494;5.502;2024-02-14T10:01:42;2.30;;;1.20;;
80677;SDS011;70042;52.494;5.502;2024-02-14T10:04:08;2.03;;;0.80;;
80677;SDS011;70042;52.494;5.502;2024-02-14T10:06:35;2.30;;;1.30;;
80677;SDS011;70042;52.494;5.502;2024-02-14T10:09:02;2.05;;;1.20;;
80677;SDS011;70042;52.494;5.502;2024-02-14T10:11:27;1.95;;;0.95;;
80677;SDS011;70042;52.494;5.502;2024-02-14T10:13:52;1.60;;;1.05;;
80677;SDS011;70042;52.494;5.502;2024-02-14T10:16:22;2.97;;;1.67;;
80677;SDS011;70042;52.494;5.502;2024-02-14T10:18:48;1.38;;;0.93;;
80677;SDS011;70042;52.494;5.502;2024-02-14T10:21:16;2.63;;;1.30;;
80677;SDS011;70042;52.494;5.502;2024-02-14T10:23:44;1.48;;;1.02;;
80677;SDS011;70042;52.494;5.502;2024-02-14T10:26:12;3.53;;;1.52;;
80677;SDS011;70042;52.494;5.502;2024-02-14T10:28:42;2.22;;;1.17;;
80677;SDS011;70042;52.494;5.502;2024-02-14T10:31:09;1.73;;;1.10;;
80677;SDS011;70042;52.494;5.502;2024-02-14T10:33:35;2.30;;;1.30;;
80677;SDS011;70042;52.494;5.502;2024-02-14T10:36:01;1.80;;;1.10;;
80677;SDS011;70042;52.494;5.502;2024-02-14T10:38:28;1.30;;;1.02;;
80677;SDS011;70042;52.494;5.502;2024-02-14T10:40:58;1.20;;;1.05;;
80677;SDS011;70042;52.494;5.502;2024-02-14T10:43:25;2.25;;;1.17;;
80677;SDS011;70042;52.494;5.502;2024-02-14T10:45:52;1.63;;;1.10;;
80677;SDS011;70042;52.494;5.502;2024-02-14T10:48:19;2.05;;;1.10;;
80677;SDS011;70042;52.494;5.502;2024-02-14T10:50:50;2.38;;;1.40;;
80677;SDS011;70042;52.494;5.502;2024-02-14T10:53:17;1.70;;;1.02;;
80677;SDS011;70042;52.494;5.502;2024-02-14T10:55:48;1.98;;;1.20;;
80677;SDS011;70042;52.494;5.502;2024-02-14T10:58:15;1.27;;;1.08;;
80677;SDS011;70042;52.494;5.502;2024-02-14T11:00:42;2.10;;;1.05;;
80677;SDS011;70042;52.494;5.502;2024-02-14T11:03:08;1.88;;;1.10;;
80677;SDS011;70042;52.494;5.502;2024-02-14T11:05:45;2.00;;;1.42;;
80677;SDS011;70042;52.494;5.502;2024-02-14T11:08:14;1.65;;;0.93;;
80677;SDS011;70042;52.494;5.502;2024-02-14T11:10:40;1.42;;;1.10;;
80677;SDS011;70042;52.494;5.502;2024-02-14T11:13:12;1.13;;;0.82;;
80677;SDS011;70042;52.494;5.502;2024-02-14T11:15:39;1.30;;;1.20;;
80677;SDS011;70042;52.494;5.502;2024-02-14T11:18:05;1.63;;;1.20;;
80677;SDS011;70042;52.494;5.502;2024-02-14T11:20:35;1.67;;;1.25;;
80677;SDS011;70042;52.494;5.502;2024-02-14T11:25:31;1.83;;;1.45;;
80677;SDS011;70042;52.494;5.502;2024-02-14T11:28:00;1.40;;;1.10;;
80677;SDS011;70042;52.494;5.502;2024-02-14T11:30:49;1.50;;;1.17;;
80677;SDS011;70042;52.494;5.502;2024-02-14T11:33:22;2.47;;;1.50;;
80677;SDS011;70042;52.494;5.502;2024-02-14T11:35:50;1.70;;;1.10;;
80677;SDS011;70042;52.494;5.502;2024-02-14T11:38:18;2.03;;;1.25;;
80677;SDS011;70042;52.494;5.502;2024-02-14T11:40:47;3.13;;;1.23;;
80677;SDS011;70042;52.494;5.502;2024-02-14T11:43:14;1.10;;;0.98;;
80677;SDS011;70042;52.494;5.502;2024-02-14T11:45:41;1.50;;;1.10;;
80677;SDS011;70042;52.494;5.502;2024-02-14T11:48:11;1.63;;;1.10;;
80677;SDS011;70042;52.494;5.502;2024-02-14T11:50:41;1.13;;;1.02;;
80677;SDS011;70042;52.494;5.502;2024-02-14T11:53:08;1.75;;;1.20;;
80677;SDS011;70042;52.494;5.502;2024-02-14T11:55:36;1.42;;;1.10;;
80677;SDS011;70042;52.494;5.502;2024-02-14T11:58:12;1.10;;;1.00;;
80677;SDS011;70042;52.494;5.502;2024-02-14T12:00:45;1.65;;;1.50;;
80677;SDS011;70042;52.494;5.502;2024-02-14T12:03:22;1.88;;;1.17;;
80677;SDS011;70042;52.494;5.502;2024-02-14T12:05:52;1.55;;;1.00;;
80677;SDS011;70042;52.494;5.502;2024-02-14T12:08:18;1.67;;;1.17;;
80677;SDS011;70042;52.494;5.502;2024-02-14T12:10:44;1.50;;;1.20;;
80677;SDS011;70042;52.494;5.502;2024-02-14T12:13:15;2.15;;;1.40;;
80677;SDS011;70042;52.494;5.502;2024-02-14T12:15:44;1.88;;;0.90;;
80677;SDS011;70042;52.494;5.502;2024-02-14T12:18:10;2.47;;;1.40;;
80677;SDS011;70042;52.494;5.502;2024-02-14T12:20:39;1.20;;;1.10;;
80677;SDS011;70042;52.494;5.502;2024-02-14T12:23:06;1.40;;;1.20;;
80677;SDS011;70042;52.494;5.502;2024-02-14T12:25:32;1.80;;;1.38;;
80677;SDS011;70042;52.494;5.502;2024-02-14T12:27:58;1.75;;;1.40;;
80677;SDS011;70042;52.494;5.502;2024-02-14T12:30:45;1.48;;;0.90;;
80677;SDS011;70042;52.494;5.502;2024-02-14T12:33:15;1.52;;;1.10;;
80677;SDS011;70042;52.494;5.502;2024-02-14T12:35:42;2.00;;;1.45;;
80677;SDS011;70042;52.494;5.502;2024-02-14T12:38:09;1.27;;;1.17;;
80677;SDS011;70042;52.494;5.502;2024-02-14T12:40:36;1.20;;;1.00;;
80677;SDS011;70042;52.494;5.502;2024-02-14T12:43:01;1.63;;;1.10;;
80677;SDS011;70042;52.494;5.502;2024-02-14T12:45:27;2.13;;;1.65;;
80677;SDS011;70042;52.494;5.502;2024-02-14T12:47:53;2.10;;;1.20;;
80677;SDS011;70042;52.494;5.502;2024-02-14T12:50:18;0.90;;;0.80;;
80677;SDS011;70042;52.494;5.502;2024-02-14T12:52:45;1.58;;;1.10;;
80677;SDS011;70042;52.494;5.502;2024-02-14T12:55:11;1.35;;;1.25;;
80677;SDS011;70042;52.494;5.502;2024-02-14T13:00:03;1.40;;;1.08;;
80677;SDS011;70042;52.494;5.502;2024-02-14T13:02:34;1.33;;;1.23;;
80677;SDS011;70042;52.494;5.502;2024-02-14T13:07:26;1.17;;;1.08;;
80677;SDS011;70042;52.494;5.502;2024-02-14T13:09:52;1.95;;;1.40;;
80677;SDS011;70042;52.494;5.502;2024-02-14T13:12:19;1.88;;;1.30;;
80677;SDS011;70042;52.494;5.502;2024-02-14T13:14:46;1.33;;;1.23;;
80677;SDS011;70042;52.494;5.502;2024-02-14T13:17:11;1.30;;;1.10;;
80677;SDS011;70042;52.494;5.502;2024-02-14T13:19:37;1.60;;;1.20;;
80677;SDS011;70042;52.494;5.502;2024-02-14T13:22:04;1.10;;;0.95;;
80677;SDS011;70042;52.494;5.502;2024-02-14T13:24:30;2.58;;;1.33;;
80677;SDS011;70042;52.494;5.502;2024-02-14T13:26:55;1.83;;;1.08;;
80677;SDS011;70042;52.494;5.502;2024-02-14T13:29:22;1.25;;;1.13;;
80677;SDS011;70042;52.494;5.502;2024-02-14T13:31:49;1.13;;;0.90;;
80677;SDS011;70042;52.494;5.502;2024-02-14T13:34:15;2.03;;;1.02;;
80677;SDS011;70042;52.494;5.502;2024-02-14T13:36:43;1.50;;;1.38;;
80677;SDS011;70042;52.494;5.502;2024-02-14T13:39:09;1.30;;;1.08;;
80677;SDS011;70042;52.494;5.502;2024-02-14T13:41:35;1.85;;;1.23;;
80677;SDS011;70042;52.494;5.502;2024-02-14T13:44:02;1.40;;;1.23;;
80677;SDS011;70042;52.494;5.502;2024-02-14T13:46:28;1.45;;;1.00;;
80677;SDS011;70042;52.494;5.502;2024-02-14T13:48:54;0.85;;;0.80;;
80677;SDS011;70042;52.494;5.502;2024-02-14T13:51:19;2.05;;;1.00;;
80677;SDS011;70042;52.494;5.502;2024-02-14T13:53:45;1.20;;;1.10;;
80677;SDS011;70042;52.494;5.502;2024-02-14T13:56:11;1.60;;;1.13;;
80677;SDS011;70042;52.494;5.502;2024-02-14T13:58:36;1.35;;;1.25;;
80677;SDS011;70042;52.494;5.502;2024-02-14T14:01:03;1.63;;;1.13;;
80677;SDS011;70042;52.494;5.502;2024-02-14T14:03:29;1.23;;;1.00;;
80677;SDS011;70042;52.494;5.502;2024-02-14T14:05:55;1.27;;;1.10;;
80677;SDS011;70042;52.494;5.502;2024-02-14T14:08:22;1.90;;;1.13;;
80677;SDS011;70042;52.494;5.502;2024-02-14T14:10:48;1.35;;;1.25;;
80677;SDS011;70042;52.494;5.502;2024-02-14T14:13:13;1.17;;;1.08;;
80677;SDS011;70042;52.494;5.502;2024-02-14T14:15:39;1.30;;;0.93;;
80677;SDS011;70042;52.494;5.502;2024-02-14T14:18:05;1.50;;;0.93;;
80677;SDS011;70042;52.494;5.502;2024-02-14T14:20:33;1.25;;;0.95;;
80677;SDS011;70042;52.494;5.502;2024-02-14T14:22:59;1.38;;;1.05;;
80677;SDS011;70042;52.494;5.502;2024-02-14T14:25:25;1.10;;;0.93;;
80677;SDS011;70042;52.494;5.502;2024-02-14T14:27:53;1.13;;;0.88;;
80677;SDS011;70042;52.494;5.502;2024-02-14T14:30:18;1.20;;;0.90;;
80677;SDS011;70042;52.494;5.502;2024-02-14T14:32:44;1.58;;;1.00;;
80677;SDS011;70042;52.494;5.502;2024-02-14T14:35:09;1.17;;;0.85;;
80677;SDS011;70042;52.494;5.502;2024-02-14T14:37:38;1.20;;;0.95;;
80677;SDS011;70042;52.494;5.502;2024-02-14T14:40:04;1.15;;;1.00;;
80677;SDS011;70042;52.494;5.502;2024-02-14T14:42:30;1.20;;;0.95;;
80677;SDS011;70042;52.494;5.502;2024-02-14T14:44:55;1.30;;;0.98;;
80677;SDS011;70042;52.494;5.502;2024-02-14T14:47:22;1.58;;;0.80;;
80677;SDS011;70042;52.494;5.502;2024-02-14T14:49:48;1.00;;;0.82;;
80677;SDS011;70042;52.494;5.502;2024-02-14T14:52:13;1.10;;;0.98;;
80677;SDS011;70042;52.494;5.502;2024-02-14T14:54:39;0.88;;;0.82;;
80677;SDS011;70042;52.494;5.502;2024-02-14T14:57:04;1.13;;;1.02;;
80677;SDS011;70042;52.494;5.502;2024-02-14T14:59:34;1.80;;;1.02;;
80677;SDS011;70042;52.494;5.502;2024-02-14T15:02:00;1.17;;;0.90;;
80677;SDS011;70042;52.494;5.502;2024-02-14T15:04:25;1.30;;;1.10;;
80677;SDS011;70042;52.494;5.502;2024-02-14T15:06:51;1.20;;;1.00;;